Time;durP1;ratioP1;P1;durP2;ratioP2;P2;SDS_P1;SDS_P2;PMS_P1;PMS_P2;Temp;Humidity;BMP_temperature;BMP_pressure;BME280_temperature;BME280_humidity;BME280_pressure;Samples;Min_cycle;Max_cycle;Signal;HPM_P1;HPM_P2
2022/06/25 00:01:11;;;;;;;6.55;3.13;;;;;;;19.18;76.55;100667.00;5029504;28;20703;-32
2022/06/25 00:03:37;;;;;;;8.40;2.78;;;;;;;19.13;76.74;100663.34;5039422;28;20681;-34
2022/06/25 00:06:03;;;;;;;9.27;3.72;;;;;;;19.13;77.07;100661.44;5033955;28;20030;-32
2022/06/25 00:08:28;;;;;;;5.65;3.05;;;;;;;19.13;77.65;100666.06;5030237;28;20037;-33
2022/06/25 00:10:54;;;;;;;4.53;2.97;;;;;;;19.12;77.53;100667.16;5029564;28;20120;-34
2022/06/25 00:13:20;;;;;;;5.75;3.15;;;;;;;19.08;78.07;100670.34;5036956;28;20037;-33
2022/06/25 00:15:45;;;;;;;3.15;2.85;;;;;;;19.07;78.38;100679.63;5030770;28;20194;-33
2022/06/25 00:18:11;;;;;;;5.05;3.40;;;;;;;19.10;78.37;100677.47;5038127;28;20519;-32
2022/06/25 00:20:36;;;;;;;7.93;3.80;;;;;;;19.08;78.57;100673.06;5036102;28;20078;-33
2022/06/25 00:23:02;;;;;;;6.07;3.65;;;;;;;19.06;78.66;100672.50;5033500;28;20040;-34
2022/06/25 00:25:27;;;;;;;6.13;3.70;;;;;;;19.04;78.98;100677.38;5035682;28;20048;-33
2022/06/25 00:27:53;;;;;;;8.57;3.97;;;;;;;18.98;79.24;100670.16;5034278;28;20029;-35
2022/06/25 00:30:18;;;;;;;7.82;4.13;;;;;;;18.97;79.67;100679.41;5034047;28;20092;-32
2022/06/25 00:32:44;;;;;;;7.38;4.18;;;;;;;18.94;80.02;100679.91;5033409;28;20037;-33
2022/06/25 00:35:10;;;;;;;7.15;3.80;;;;;;;18.93;80.26;100678.25;5032567;28;20034;-32
2022/06/25 00:37:35;;;;;;;6.85;4.13;;;;;;;18.88;80.74;100674.56;5033753;28;20030;-32
2022/06/25 00:40:00;;;;;;;9.75;4.18;;;;;;;18.85;81.11;100671.28;5038181;28;20025;-33
2022/06/25 00:42:26;;;;;;;10.20;4.60;;;;;;;18.83;81.45;100670.69;5031818;28;20127;-32
2022/06/25 00:44:55;;;;;;;11.60;4.60;;;;;;;18.83;81.40;100667.13;5039490;28;20040;-34
2022/06/25 00:47:21;;;;;;;8.40;4.57;;;;;;;18.85;81.46;100673.16;5032768;28;20033;-34
2022/06/25 00:49:46;;;;;;;7.47;4.22;;;;;;;18.80;81.80;100673.03;5040347;28;20120;-33
2022/06/25 00:52:17;;;;;;;13.27;5.07;;;;;;;18.72;82.37;100674.22;5032786;28;20095;-33
2022/06/25 00:54:48;;;;;;;12.25;4.85;;;;;;;18.70;83.01;100665.47;5031479;28;20041;-35
2022/06/25 00:57:18;;;;;;;13.80;5.88;;;;;;;18.65;83.36;100679.81;5032598;28;20092;-34
2022/06/25 00:59:48;;;;;;;13.25;5.35;;;;;;;18.65;83.66;100676.25;5032979;28;20084;-33
2022/06/25 01:02:13;;;;;;;17.67;6.13;;;;;;;18.62;83.94;100677.56;5048011;28;20025;-34
2022/06/25 01:04:39;;;;;;;14.57;6.18;;;;;;;18.60;84.48;100690.59;5032630;28;20052;-34
2022/06/25 01:07:06;;;;;;;12.13;5.30;;;;;;;18.62;84.29;100691.19;5032484;28;20044;-34
2022/06/25 01:09:31;;;;;;;11.90;5.88;;;;;;;18.64;84.19;100683.59;5031394;28;20357;-33
2022/06/25 01:11:57;;;;;;;13.98;5.57;;;;;;;18.64;84.14;100680.88;5043628;28;20033;-34
2022/06/25 01:14:22;;;;;;;12.70;5.68;;;;;;;18.65;84.27;100682.53;5031034;28;20128;-34
2022/06/25 01:16:47;;;;;;;15.05;6.18;;;;;;;18.64;84.28;100694.50;5031937;28;20030;-34
2022/06/25 01:19:13;;;;;;;13.85;6.95;;;;;;;18.57;84.78;100692.97;5029074;28;20060;-34
2022/06/25 01:21:40;;;;;;;14.25;6.10;;;;;;;18.50;85.27;100693.09;5043735;28;20029;-36
2022/06/25 01:24:06;;;;;;;14.90;6.30;;;;;;;18.50;85.63;100704.00;5031883;28;20513;-34
2022/06/25 01:26:36;;;;;;;16.48;6.40;;;;;;;18.46;85.61;100705.53;5030651;28;20443;-33
2022/06/25 01:29:03;;;;;;;15.35;7.00;;;;;;;18.46;85.91;100708.28;5013266;28;20111;-35
2022/06/25 01:31:28;;;;;;;23.13;7.30;;;;;;;18.42;85.81;100715.25;5035835;28;20033;-32
2022/06/25 01:33:54;;;;;;;19.63;6.97;;;;;;;18.42;86.29;100720.69;5031936;28;20022;-32
2022/06/25 01:36:19;;;;;;;18.88;7.75;;;;;;;18.38;86.26;100719.53;5038860;28;20187;-32
2022/06/25 01:38:45;;;;;;;17.55;8.05;;;;;;;18.37;86.58;100724.13;5045094;28;20018;-35
2022/06/25 01:41:10;;;;;;;18.55;7.90;;;;;;;18.32;86.76;100729.44;5044788;28;20024;-33
2022/06/25 01:43:36;;;;;;;21.10;7.95;;;;;;;18.28;87.05;100724.72;5031854;28;20045;-35
2022/06/25 01:46:01;;;;;;;19.52;7.35;;;;;;;18.31;87.02;100729.69;5030945;28;20045;-32
2022/06/25 01:48:26;;;;;;;18.55;7.35;;;;;;;18.32;86.99;100726.72;5031611;28;20522;-34
2022/06/25 01:50:52;;;;;;;19.60;8.50;;;;;;;18.31;87.09;100729.69;5037662;28;20017;-32
2022/06/25 01:53:17;;;;;;;31.90;11.98;;;;;;;18.22;87.43;100726.50;5043364;28;20428;-32
2022/06/25 01:55:43;;;;;;;29.05;10.48;;;;;;;18.25;87.61;100728.75;5033144;28;20488;-33
2022/06/25 01:58:08;;;;;;;31.77;11.00;;;;;;;18.23;87.89;100733.59;5031913;28;20056;-33
2022/06/25 02:00:34;;;;;;;26.35;11.30;;;;;;;18.19;88.21;100733.25;5032584;28;20032;-32
2022/06/25 02:03:00;;;;;;;34.03;12.43;;;;;;;18.17;88.29;100723.66;5031548;28;20030;-33
2022/06/25 02:08:15;;;;;;;24.55;10.48;;;;;;;18.18;88.25;100738.94;5037121;28;20031;-36
2022/06/25 02:10:41;;;;;;;25.50;10.57;;;;;;;18.20;88.29;100745.78;5037321;28;20063;-32
2022/06/25 02:13:06;;;;;;;27.13;10.55;;;;;;;18.24;87.80;100746.16;5047311;28;20060;-33
2022/06/25 02:15:32;;;;;;;28.63;10.40;;;;;;;18.22;87.87;100742.84;5040409;28;20123;-33
2022/06/25 02:17:58;;;;;;;22.17;9.98;;;;;;;18.21;87.80;100747.44;5031680;28;20366;-35
2022/06/25 02:20:24;;;;;;;21.65;9.45;;;;;;;18.24;87.19;100742.59;5031144;28;20087;-35
2022/06/25 02:22:49;;;;;;;28.25;9.07;;;;;;;18.27;86.92;100745.66;5031687;28;20088;-33
2022/06/25 02:25:14;;;;;;;18.50;8.57;;;;;;;18.26;86.96;100743.19;5030091;28;20021;-34
2022/06/25 02:27:40;;;;;;;21.17;8.32;;;;;;;18.29;86.61;100745.44;5031692;28;20025;-34
2022/06/25 02:30:06;;;;;;;17.27;7.88;;;;;;;18.29;86.54;100750.91;5033482;28;20031;-33
2022/06/25 02:32:32;;;;;;;18.98;7.05;;;;;;;18.27;85.49;100742.13;5046250;28;20322;-33
2022/06/25 02:34:58;;;;;;;17.83;7.47;;;;;;;18.29;85.35;100745.44;5078099;23;20489;-78
2022/06/25 02:37:24;;;;;;;24.10;7.10;;;;;;;18.28;85.07;100754.69;5032847;28;20033;-78
2022/06/25 02:39:49;;;;;;;16.92;7.20;;;;;;;18.34;84.82;100756.47;5032660;28;20037;-78
2022/06/25 02:42:14;;;;;;;17.85;6.40;;;;;;;18.32;84.27;100756.69;5031739;28;20501;-77
2022/06/25 02:44:40;;;;;;;15.13;6.65;;;;;;;18.28;83.81;100762.88;5032000;28;20071;-77
2022/06/25 02:47:05;;;;;;;14.85;6.22;;;;;;;18.24;83.71;100762.50;5031788;28;20112;-78
2022/06/25 02:49:31;;;;;;;16.17;6.00;;;;;;;18.27;83.05;100762.00;5032692;28;20025;-77
2022/06/25 02:51:56;;;;;;;20.10;5.93;;;;;;;18.30;82.77;100771.63;5021915;28;20088;-77
2022/06/25 02:54:21;;;;;;;10.25;5.53;;;;;;;18.30;82.78;100777.06;5031552;28;20034;-76
2022/06/25 02:59:30;;;;;;;11.38;4.70;;;;;;;18.30;82.34;100779.78;5031318;28;20063;-76
2022/06/25 03:01:56;;;;;;;15.43;4.78;;;;;;;18.28;82.07;100776.50;5029682;28;20473;-79
2022/06/25 03:04:24;;;;;;;13.55;4.35;;;;;;;18.25;81.45;100774.25;5031375;28;20017;-76
2022/06/25 03:06:51;;;;;;;11.43;4.47;;;;;;;18.27;81.20;100780.25;5031087;28;20061;-77
2022/06/25 03:09:16;;;;;;;13.23;4.30;;;;;;;18.28;80.93;100780.03;5030835;28;20033;-78
2022/06/25 03:11:42;;;;;;;7.10;3.75;;;;;;;18.30;80.36;100777.91;5030716;28;20056;-77
2022/06/25 03:14:07;;;;;;;9.80;4.15;;;;;;;18.32;79.87;100774.94;5030603;28;20022;-76
2022/06/25 03:16:33;;;;;;;6.20;3.88;;;;;;;18.34;79.46;100783.72;5031176;28;20124;-76
2022/06/25 03:18:58;;;;;;;12.27;3.67;;;;;;;18.34;79.63;100778.28;5030614;28;20430;-76
2022/06/25 03:21:23;;;;;;;12.15;3.30;;;;;;;18.33;79.51;100788.34;5031133;28;20136;-78
2022/06/25 03:23:49;;;;;;;7.28;3.47;;;;;;;18.31;79.05;100785.00;5030674;28;20040;-77
2022/06/25 03:26:14;;;;;;;10.10;3.17;;;;;;;18.34;78.73;100789.16;5029367;28;20037;-77
2022/06/25 03:28:40;;;;;;;11.35;3.78;;;;;;;18.33;78.40;100792.97;5029169;28;20083;-77
2022/06/25 03:31:05;;;;;;;11.93;3.65;;;;;;;18.36;77.98;100797.94;5030876;28;20025;-77
2022/06/25 03:33:31;;;;;;;8.82;3.38;;;;;;;18.38;78.09;100790.38;5026749;28;20034;-76
2022/06/25 03:35:56;;;;;;;6.55;3.08;;;;;;;18.41;78.02;100795.34;5009760;28;20014;-77
2022/06/25 03:38:22;;;;;;;10.98;3.15;;;;;;;18.40;77.78;100801.84;5011152;28;20106;-77
2022/06/25 03:40:47;;;;;;;9.82;3.10;;;;;;;18.36;77.26;100800.66;5009396;28;20034;-77
2022/06/25 03:43:12;;;;;;;9.80;3.13;;;;;;;18.38;77.31;100806.72;5011035;28;20022;-77
2022/06/25 03:45:38;;;;;;;13.00;3.40;;;;;;;18.40;77.22;100810.88;5010588;28;20045;-78
2022/06/25 03:48:04;;;;;;;9.98;3.17;;;;;;;18.41;76.62;100811.69;5010918;28;20362;-76
2022/06/25 03:50:29;;;;;;;11.77;3.00;;;;;;;18.43;76.67;100820.44;5010962;28;20355;-77
2022/06/25 03:52:56;;;;;;;8.30;2.97;;;;;;;18.42;76.60;100819.63;4993245;28;20042;-76
2022/06/25 03:55:22;;;;;;;6.73;3.13;;;;;;;18.46;76.29;100824.59;5008015;28;20038;-77
2022/06/25 03:57:47;;;;;;;7.95;3.33;;;;;;;18.46;76.03;100827.31;5007998;28;20041;-77
2022/06/25 04:00:14;;;;;;;6.90;3.08;;;;;;;18.44;75.74;100827.56;5009260;28;20030;-78
2022/06/25 04:02:40;;;;;;;6.47;3.40;;;;;;;18.52;75.89;100829.94;5012947;28;20036;-78
2022/06/25 04:05:06;;;;;;;6.72;2.90;;;;;;;18.45;75.86;100826.50;5012005;28;20029;-76
2022/06/25 04:07:31;;;;;;;7.43;3.20;;;;;;;18.52;75.76;100832.69;5012525;28;20041;-77
2022/06/25 04:09:57;;;;;;;7.28;3.70;;;;;;;18.47;76.09;100827.09;5012224;28;20030;-78
2022/06/25 04:12:22;;;;;;;8.23;3.30;;;;;;;18.47;75.91;100840.72;5012054;28;20025;-77
2022/06/25 04:14:47;;;;;;;10.48;3.65;;;;;;;18.48;76.36;100833.38;5012222;28;20485;-75
2022/06/25 04:17:13;;;;;;;10.40;3.33;;;;;;;18.48;76.24;100841.53;5012541;28;20108;-77
2022/06/25 04:19:42;;;;;;;13.93;3.33;;;;;;;18.39;76.35;100843.78;5012133;28;20540;-78
2022/06/25 04:22:11;;;;;;;13.00;3.17;;;;;;;18.41;76.18;100838.94;5011976;28;20379;-76
2022/06/25 04:24:38;;;;;;;12.27;3.80;;;;;;;18.51;76.30;100843.81;5011251;28;20551;-76
2022/06/25 04:27:05;;;;;;;11.38;3.60;;;;;;;18.34;76.53;100838.22;5011641;28;20208;-77
2022/06/25 04:29:31;;;;;;;11.98;3.58;;;;;;;18.39;76.80;100841.06;5011411;28;20132;-77
2022/06/25 04:31:56;;;;;;;12.23;4.20;;;;;;;18.42;76.68;100837.88;5002266;28;20544;-78
2022/06/25 04:34:22;;;;;;;9.90;3.78;;;;;;;18.49;76.70;100835.88;5011635;28;20056;-77
2022/06/25 04:36:47;;;;;;;9.73;3.25;;;;;;;18.46;76.54;100841.81;5010108;28;20041;-77
2022/06/25 04:39:13;;;;;;;8.75;3.70;;;;;;;18.49;76.77;100835.88;5011384;28;20525;-78
2022/06/25 04:41:38;;;;;;;9.63;3.40;;;;;;;18.48;76.49;100839.66;5011655;28;20025;-77
2022/06/25 04:44:04;;;;;;;9.95;3.60;;;;;;;18.46;76.76;100840.94;5011407;28;20342;-77
2022/06/25 04:46:29;;;;;;;9.02;3.58;;;;;;;18.40;76.81;100845.44;5011273;28;20853;-77
2022/06/25 04:48:56;;;;;;;12.52;3.63;;;;;;;18.32;77.37;100849.31;5011627;28;20029;-78
2022/06/25 04:51:22;;;;;;;9.55;3.67;;;;;;;18.31;77.59;100855.03;5011012;28;20057;-78
2022/06/25 04:53:56;;;;;;;7.55;3.38;;;;;;;18.30;77.64;100859.66;5025916;28;20120;-78
2022/06/25 04:56:23;;;;;;;9.55;4.15;;;;;;;18.30;77.77;100858.78;5008608;28;20034;-78
2022/06/25 04:58:48;;;;;;;7.75;3.10;;;;;;;18.30;77.90;100865.09;5005782;28;20611;-78
2022/06/25 05:01:13;;;;;;;12.43;3.58;;;;;;;18.33;78.08;100866.53;5004549;28;20026;-79
2022/06/25 05:03:39;;;;;;;8.45;3.40;;;;;;;18.42;77.85;100873.28;4995582;28;20029;-78
2022/06/25 05:06:06;;;;;;;10.65;2.80;;;;;;;18.44;77.65;100876.63;5002207;28;20014;-78
2022/06/25 05:08:31;;;;;;;7.53;2.83;;;;;;;18.48;77.60;100869.63;5007747;28;20026;-78
2022/06/25 05:10:57;;;;;;;10.52;3.00;;;;;;;18.48;77.38;100874.25;5007571;28;20022;-78
2022/06/25 05:13:22;;;;;;;7.22;2.50;;;;;;;18.48;77.24;100872.34;5003602;28;20049;-79
2022/06/25 05:15:47;;;;;;;6.35;2.55;;;;;;;18.57;77.13;100870.97;5002071;28;20022;-78
2022/06/25 05:18:13;;;;;;;6.60;2.28;;;;;;;18.65;76.99;100880.69;5004841;28;20539;-77
2022/06/25 05:20:40;;;;;;;9.10;2.80;;;;;;;18.63;76.85;100878.19;5008101;28;20481;-77
2022/06/25 05:23:06;;;;;;;5.55;2.35;;;;;;;18.69;76.93;100878.31;5018655;28;20018;-77
2022/06/25 05:25:31;;;;;;;8.13;2.28;;;;;;;18.76;76.44;100885.38;5018726;28;20552;-78
2022/06/25 05:27:56;;;;;;;6.65;2.75;;;;;;;18.76;76.43;100887.25;5005695;28;20045;-79
2022/06/25 05:30:22;;;;;;;7.30;2.13;;;;;;;18.70;76.58;100891.72;5005536;28;20046;-77
2022/06/25 05:32:47;;;;;;;8.90;2.13;;;;;;;18.60;76.68;100892.28;5002463;28;20085;-77
2022/06/25 05:35:12;;;;;;;11.02;2.30;;;;;;;18.62;77.10;100894.81;4999055;28;20054;-79
2022/06/25 05:37:38;;;;;;;4.13;2.22;;;;;;;18.56;76.68;100888.41;5011255;28;20470;-77
2022/06/25 05:40:04;;;;;;;7.30;2.20;;;;;;;18.71;76.92;100898.84;5010741;28;20508;-78
2022/06/25 05:42:29;;;;;;;10.35;2.40;;;;;;;18.80;76.67;100908.38;5010265;28;20041;-78
2022/06/25 05:44:54;;;;;;;10.32;2.75;;;;;;;18.56;76.97;100904.75;5010596;28;20041;-76
2022/06/25 05:47:20;;;;;;;11.60;2.47;;;;;;;18.51;77.12;100901.88;4993142;28;20042;-78
2022/06/25 05:49:45;;;;;;;5.57;2.20;;;;;;;18.57;78.04;100906.41;4997038;28;20107;-77
2022/06/25 05:52:11;;;;;;;5.80;2.25;;;;;;;18.65;77.04;100906.06;5005068;28;20081;-76
2022/06/25 05:54:37;;;;;;;5.18;2.50;;;;;;;18.91;76.89;100898.53;4996122;28;20606;-76
2022/06/25 05:57:02;;;;;;;7.63;2.30;;;;;;;19.11;75.50;100900.09;4989783;28;20101;-78
2022/06/25 05:59:28;;;;;;;6.80;2.33;;;;;;;18.96;75.86;100898.66;4993851;28;20030;-78
2022/06/25 06:01:53;;;;;;;8.73;2.58;;;;;;;19.11;75.42;100906.38;5009953;28;20030;-76
2022/06/25 06:04:19;;;;;;;3.67;2.00;;;;;;;19.31;74.73;100919.66;5010264;28;20037;-77
2022/06/25 06:06:44;;;;;;;9.50;2.47;;;;;;;19.37;74.33;100918.69;5006274;28;20116;-78
2022/06/25 06:09:10;;;;;;;5.68;2.25;;;;;;;19.34;74.11;100913.72;5004113;28;20056;-79
2022/06/25 06:11:35;;;;;;;5.75;2.33;;;;;;;19.10;74.51;100912.06;4997670;28;20030;-77
2022/06/25 06:14:01;;;;;;;7.82;3.05;;;;;;;19.14;74.99;100916.84;5003444;28;20091;-79
2022/06/25 06:16:26;;;;;;;10.48;2.55;;;;;;;19.13;75.01;100927.97;4998896;28;20026;-77
2022/06/25 06:18:52;;;;;;;6.93;1.95;;;;;;;19.19;74.81;100937.94;5009882;28;20037;-77
2022/06/25 06:21:17;;;;;;;18.52;2.90;;;;;;;19.21;74.66;100943.97;5011041;28;20022;-77
2022/06/25 06:23:42;;;;;;;7.93;2.30;;;;;;;19.00;75.25;100940.75;5011937;28;20029;-78
2022/06/25 06:26:08;;;;;;;5.13;2.30;;;;;;;18.99;75.38;100943.75;5012321;28;20021;-77
2022/06/25 06:28:33;;;;;;;8.02;2.25;;;;;;;18.83;75.78;100953.44;5012509;28;20030;-77
2022/06/25 06:30:58;;;;;;;5.55;2.08;;;;;;;18.80;76.50;100952.00;5012600;28;20103;-77
2022/06/25 06:33:24;;;;;;;3.78;1.75;;;;;;;18.94;76.33;100958.06;5010621;28;20108;-77
2022/06/25 06:35:49;;;;;;;5.07;1.92;;;;;;;18.91;76.40;100960.44;5001250;28;20086;-78
2022/06/25 06:38:14;;;;;;;4.53;2.08;;;;;;;18.83;76.23;100956.16;5009756;28;20410;-78
2022/06/25 06:40:40;;;;;;;5.53;2.42;;;;;;;18.80;76.17;100956.59;5011839;28;20033;-77
2022/06/25 06:43:05;;;;;;;4.47;2.15;;;;;;;18.75;76.50;100959.22;4997779;28;20030;-77
2022/06/25 06:45:30;;;;;;;3.35;2.30;;;;;;;18.77;75.88;100959.81;5010692;28;20022;-77
2022/06/25 06:47:56;;;;;;;4.28;2.17;;;;;;;18.92;75.90;100960.19;4992618;28;20104;-77
2022/06/25 06:50:21;;;;;;;3.45;2.10;;;;;;;18.96;75.37;100966.84;4992405;28;20026;-78
2022/06/25 06:52:46;;;;;;;11.45;2.88;;;;;;;19.01;75.72;100960.69;4998261;28;20026;-77
2022/06/25 06:55:12;;;;;;;5.18;2.15;;;;;;;18.98;75.45;100964.69;5012158;28;20076;-78
2022/06/25 06:57:37;;;;;;;8.48;1.80;;;;;;;18.90;75.52;100975.94;5010948;28;20076;-76
2022/06/25 07:00:07;;;;;;;7.85;1.58;;;;;;;18.77;75.55;100987.91;4992353;28;20026;-77
2022/06/25 07:02:33;;;;;;;5.95;1.60;;;;;;;18.50;76.40;100986.59;4992452;28;20034;-77
2022/06/25 07:04:58;;;;;;;4.72;1.50;;;;;;;18.36;76.96;100981.31;4993333;28;20023;-77
2022/06/25 07:07:24;;;;;;;8.30;1.73;;;;;;;18.21;77.13;100976.28;5011448;28;20036;-78
2022/06/25 07:09:49;;;;;;;5.53;2.03;;;;;;;18.16;77.47;100989.75;5012183;28;20061;-79
2022/06/25 07:12:15;;;;;;;15.88;2.25;;;;;;;18.09;77.49;100997.19;5027749;28;20030;-77
2022/06/25 07:14:40;;;;;;;10.15;2.05;;;;;;;18.14;77.89;100988.31;5011899;28;20485;-77
2022/06/25 07:17:05;;;;;;;6.55;1.80;;;;;;;18.16;76.77;100994.38;5010140;28;20129;-77
2022/06/25 07:19:31;;;;;;;5.78;1.65;;;;;;;18.25;76.31;100992.19;5010731;28;20548;-79
2022/06/25 07:21:57;;;;;;;3.65;1.70;;;;;;;18.31;75.73;100996.72;5011524;28;20065;-77
2022/06/25 07:24:23;;;;;;;7.07;1.98;;;;;;;18.33;75.30;101000.03;5011428;28;20022;-77
2022/06/25 07:26:48;;;;;;;6.85;1.95;;;;;;;18.24;73.65;101002.22;5011895;28;20029;-76
2022/06/25 07:29:14;;;;;;;9.40;1.55;;;;;;;18.17;74.13;101012.41;5010602;28;20026;-77
2022/06/25 07:31:40;;;;;;;5.95;1.63;;;;;;;18.27;74.13;101006.38;5011718;28;20482;-78
2022/06/25 07:34:05;;;;;;;7.43;1.88;;;;;;;18.23;73.79;101016.09;5011173;28;20132;-78
2022/06/25 07:36:31;;;;;;;4.50;1.40;;;;;;;18.07;74.09;101018.38;5011213;28;20022;-76
2022/06/25 07:38:57;;;;;;;7.53;1.70;;;;;;;18.04;75.06;101024.28;5011586;28;20079;-78
2022/06/25 07:41:22;;;;;;;9.90;1.80;;;;;;;18.03;77.12;101028.03;5011249;28;20026;-78
2022/06/25 07:43:47;;;;;;;8.25;1.58;;;;;;;17.95;77.84;101026.44;5011485;28;20034;-78
2022/06/25 07:46:13;;;;;;;6.88;1.70;;;;;;;17.86;77.66;101021.53;5011603;28;20371;-78
2022/06/25 07:48:39;;;;;;;4.88;1.42;;;;;;;17.85;79.56;101017.13;5011472;28;20049;-77
2022/06/25 07:53:48;;;;;;;10.20;1.80;;;;;;;17.48;77.73;101031.50;5012129;28;20040;-77
2022/06/25 07:56:14;;;;;;;7.47;1.70;;;;;;;17.55;77.56;101020.56;5011325;28;20026;-78
2022/06/25 07:58:39;;;;;;;8.73;1.80;;;;;;;17.60;77.85;101023.44;5011324;28;20045;-78
2022/06/25 08:01:05;;;;;;;7.18;1.73;;;;;;;17.52;75.63;101031.88;5011345;28;20540;-78
2022/06/25 08:03:31;;;;;;;6.20;1.40;;;;;;;17.55;74.85;101039.59;5010599;28;20113;-78
2022/06/25 08:05:57;;;;;;;6.25;1.85;;;;;;;17.48;74.09;101033.38;4996743;28;20034;-78
2022/06/25 08:08:23;;;;;;;4.25;1.13;;;;;;;17.54;75.13;101029.78;4992157;28;20034;-78
2022/06/25 08:10:48;;;;;;;5.47;1.52;;;;;;;17.69;75.71;101030.28;4997445;28;20030;-77
2022/06/25 08:13:14;;;;;;;6.47;1.20;;;;;;;17.83;75.73;101032.88;5001857;28;20446;-79
2022/06/25 08:15:39;;;;;;;4.28;1.63;;;;;;;17.95;75.91;101031.06;5014618;28;20052;-78
2022/06/25 08:18:05;;;;;;;6.88;1.60;;;;;;;18.11;75.68;101040.53;5002016;28;20612;-79
2022/06/25 08:20:30;;;;;;;10.32;1.80;;;;;;;18.16;74.45;101038.78;5017736;28;20026;-78
2022/06/25 08:22:55;;;;;;;7.35;1.88;;;;;;;18.22;73.88;101031.63;5015494;28;20022;-80
2022/06/25 08:25:21;;;;;;;6.05;1.80;;;;;;;18.38;74.20;101043.78;5011574;28;20037;-78
2022/06/25 08:27:51;;;;;;;3.42;1.50;;;;;;;18.48;73.43;101040.50;4995746;28;20041;-79
2022/06/25 08:30:18;;;;;;;7.35;1.58;;;;;;;18.57;72.48;101048.13;5004887;28;20481;-78
2022/06/25 08:32:44;;;;;;;7.85;1.90;;;;;;;18.63;71.68;101046.38;5011407;28;20029;-79
2022/06/25 08:35:09;;;;;;;9.18;1.88;;;;;;;18.68;72.29;101045.69;5011002;28;20505;-78
2022/06/25 08:37:45;;;;;;;9.57;2.05;;;;;;;18.63;72.07;101049.94;5010891;28;20026;-78
2022/06/25 08:40:11;;;;;;;11.07;2.20;;;;;;;18.73;71.31;101045.84;5010868;28;20480;-78
2022/06/25 08:42:37;;;;;;;13.07;2.10;;;;;;;18.76;71.00;101053.59;5011596;28;20037;-80
2022/06/25 08:45:03;;;;;;;11.43;1.95;;;;;;;18.81;71.11;101056.44;4993073;28;20045;-79
2022/06/25 08:47:28;;;;;;;10.75;2.05;;;;;;;18.90;70.76;101056.94;5013154;28;20030;-79
2022/06/25 08:49:54;;;;;;;12.63;2.42;;;;;;;18.90;69.46;101062.41;5014400;28;20040;-79
2022/06/25 08:52:21;;;;;;;13.98;2.60;;;;;;;18.95;70.05;101071.53;5014234;28;20493;-80
2022/06/25 08:54:48;;;;;;;11.80;2.20;;;;;;;18.99;72.42;101064.56;5014346;28;20113;-79
2022/06/25 08:57:14;;;;;;;12.05;2.00;;;;;;;18.86;71.15;101067.50;5013218;28;20473;-79
2022/06/25 08:59:40;;;;;;;12.43;2.00;;;;;;;18.60;70.18;101066.75;5014833;28;20038;-79
2022/06/25 09:02:05;;;;;;;10.73;2.00;;;;;;;18.62;70.52;101069.25;5014491;28;20061;-77
2022/06/25 09:04:31;;;;;;;13.95;1.98;;;;;;;18.47;68.76;101061.47;5030335;28;20026;-77
2022/06/25 09:07:17;;;;;;;13.00;2.17;;;;;;;18.63;69.18;101060.00;4999567;28;20193;-77
2022/06/25 09:09:46;;;;;;;15.32;2.35;;;;;;;18.60;67.91;101060.47;4995559;28;20026;-76
2022/06/25 09:12:16;;;;;;;11.15;2.00;;;;;;;18.69;68.27;101063.69;5001080;28;20026;-77
2022/06/25 09:14:42;;;;;;;14.98;1.85;;;;;;;18.81;68.16;101073.63;5012713;28;20079;-78
2022/06/25 09:17:12;;;;;;;12.68;2.20;;;;;;;18.95;67.45;101078.91;4994506;28;20027;-78
2022/06/25 09:19:47;;;;;;;9.20;1.88;;;;;;;19.18;67.78;101083.59;5003392;28;20462;-78
2022/06/25 09:22:22;;;;;;;11.88;2.03;;;;;;;19.07;67.20;101083.34;5014760;28;20033;-78
2022/06/25 09:24:50;;;;;;;12.32;1.85;;;;;;;19.04;67.90;101082.97;4994510;28;20067;-78
2022/06/25 09:27:21;;;;;;;13.20;1.70;;;;;;;18.97;67.89;101091.25;4994384;28;20042;-78
2022/06/25 09:29:48;;;;;;;9.82;2.40;;;;;;;18.70;67.64;101085.28;5007911;28;20076;-78
2022/06/25 09:32:14;;;;;;;11.85;1.88;;;;;;;18.70;68.83;101090.75;5001178;28;20022;-78
2022/06/25 09:34:40;;;;;;;13.38;2.25;;;;;;;18.79;69.37;101080.38;4994365;28;20065;-79
2022/06/25 09:37:19;;;;;;;13.05;2.30;;;;;;;18.65;69.21;101080.53;4995105;28;20026;-79
2022/06/25 09:39:46;;;;;;;16.02;2.13;;;;;;;18.52;69.48;101090.78;4997019;28;20447;-77
2022/06/25 09:42:28;;;;;;;7.03;1.58;;;;;;;18.43;71.59;101092.94;4993078;28;20497;-77
2022/06/25 09:45:05;;;;;;;12.70;2.28;;;;;;;18.63;73.40;101093.56;4996958;28;20046;-77
2022/06/25 09:47:33;;;;;;;18.15;3.10;;;;;;;18.68;74.02;101094.75;5011598;28;20034;-76
2022/06/25 09:50:09;;;;;;;15.38;2.65;;;;;;;18.71;74.70;101100.59;5003968;28;20033;-76
2022/06/25 09:52:36;;;;;;;13.27;2.22;;;;;;;18.56;75.36;101108.31;5001256;28;20021;-75
2022/06/25 09:55:03;;;;;;;11.45;2.38;;;;;;;18.39;76.01;101111.66;5011117;28;20470;-79
2022/06/25 09:57:30;;;;;;;14.75;2.60;;;;;;;18.41;76.66;101100.53;5012708;28;20034;-77
2022/06/25 09:59:56;;;;;;;12.07;2.47;;;;;;;18.33;76.55;101109.03;5010745;28;20496;-76
2022/06/25 10:02:27;;;;;;;16.63;3.00;;;;;;;18.23;78.09;101112.28;5027751;28;20037;-77
2022/06/25 10:04:55;;;;;;;13.77;2.70;;;;;;;18.19;78.22;101108.31;5007209;28;20030;-78
2022/06/25 10:07:59;;;;;;;15.18;3.05;;;;;;;18.30;78.68;101114.91;4993275;28;20027;-76
2022/06/25 10:10:06;;;;;;;15.52;2.92;;;;;;;18.38;80.44;101111.91;4993858;28;20044;-78
2022/06/25 10:12:32;;;;;;;16.08;2.53;;;;;;;18.24;81.11;101102.19;5011454;28;20499;-79
2022/06/25 10:14:57;;;;;;;15.05;3.22;;;;;;;18.24;82.52;101102.19;5027337;28;20030;-79
2022/06/25 10:17:23;;;;;;;14.07;3.28;;;;;;;18.08;82.76;101109.91;5006739;28;20319;-78
2022/06/25 10:19:48;;;;;;;10.63;2.70;;;;;;;18.24;83.50;101111.19;5007976;28;20026;-79
2022/06/25 10:22:13;;;;;;;17.00;2.40;;;;;;;18.38;81.63;101120.91;5012796;28;20033;-79
2022/06/25 10:24:39;;;;;;;12.23;2.72;;;;;;;18.50;80.64;101106.50;5009471;28;20034;-78
2022/06/25 10:27:04;;;;;;;16.23;2.90;;;;;;;19.29;82.37;101113.63;4998107;28;20022;-77
2022/06/25 10:29:31;;;;;;;13.02;2.72;;;;;;;20.33;79.08;101115.88;5003081;28;20045;-78
2022/06/25 10:32:16;;;;;;;14.65;2.72;;;;;;;20.94;73.23;101118.25;5011270;28;20046;-78
2022/06/25 10:34:58;;;;;;;12.82;2.45;;;;;;;21.80;69.79;101116.22;5000203;28;20045;-77
2022/06/25 10:37:24;;;;;;;16.92;2.85;;;;;;;21.96;65.96;101120.03;5009845;28;20136;-76
2022/06/25 10:39:53;;;;;;;14.10;2.30;;;;;;;22.45;63.39;101122.09;5012483;28;20062;-77
2022/06/25 10:45:06;;;;;;;9.52;2.80;;;;;;;23.31;60.26;101118.72;5012050;28;20115;-77
2022/06/25 10:47:43;;;;;;;11.98;2.38;;;;;;;23.99;58.28;101113.50;5006965;28;20497;-77
2022/06/25 10:50:20;;;;;;;9.40;1.98;;;;;;;23.64;56.19;101123.09;5010006;28;20069;-77
2022/06/25 10:53:01;;;;;;;13.52;3.17;;;;;;;22.97;58.42;101113.44;4992766;28;20093;-77
2022/06/25 10:55:27;;;;;;;14.00;2.53;;;;;;;23.04;59.21;101121.44;4992121;28;20394;-77
2022/06/25 10:58:14;;;;;;;8.27;1.58;;;;;;;22.65;59.66;101118.78;5005589;28;20036;-77
2022/06/25 11:01:03;;;;;;;8.75;1.90;;;;;;;23.31;58.59;101114.03;5009322;28;20034;-78
2022/06/25 11:03:29;;;;;;;5.03;1.98;;;;;;;23.96;55.14;101114.00;5010438;28;20482;-77
2022/06/25 11:05:56;;;;;;;10.15;2.50;;;;;;;24.51;52.23;101120.97;5009400;28;20040;-77
2022/06/25 11:08:23;;;;;;;6.10;2.08;;;;;;;24.64;51.40;101114.94;5006002;28;20423;-78
2022/06/25 11:10:48;;;;;;;8.05;2.13;;;;;;;24.41;53.54;101126.38;5011444;28;20481;-78
2022/06/25 11:13:14;;;;;;;9.93;2.35;;;;;;;24.50;52.81;101122.88;5010329;28;20040;-78
2022/06/25 11:15:41;;;;;;;7.60;2.00;;;;;;;23.95;53.73;101109.63;5011806;28;20026;-78
2022/06/25 11:18:10;;;;;;;10.55;3.08;;;;;;;24.47;52.52;101114.34;5011513;28;20386;-77
2022/06/25 11:20:37;;;;;;;5.53;1.70;;;;;;;25.23;49.70;101115.72;5011442;28;20040;-78
2022/06/25 11:23:02;;;;;;;7.70;2.10;;;;;;;25.18;49.60;101117.34;5011589;28;20512;-78
2022/06/25 11:28:47;;;;;;;5.28;2.30;;;;;;;24.02;51.87;101112.97;5024347;28;20044;-78
2022/06/25 11:31:20;;;;;;;3.38;2.00;;;;;;;24.13;51.66;101109.19;5011276;28;20404;-77
2022/06/25 11:33:48;;;;;;;7.82;2.22;;;;;;;24.51;51.25;101102.53;5009849;28;20052;-77